createdAt,value
2023-01-20T00:14:41.936Z,84.26
2023-01-20T00:29:31.368Z,84.50
2023-01-20T00:44:26.105Z,84.69
2023-01-20T00:59:10.911Z,85.00
2023-01-20T01:14:00.941Z,84.98
2023-01-20T01:28:50.736Z,85.12
2023-01-20T01:43:40.513Z,85.65
2023-01-20T01:58:35.002Z,86.09
2023-01-20T02:13:30.222Z,86.00
2023-01-20T02:28:37.722Z,86.26
2023-01-20T03:13:55.777Z,86.87
2023-01-20T03:28:50.561Z,87.27
2023-01-20T03:43:39.968Z,86.98
2023-01-20T03:58:29.907Z,87.15
2023-01-20T04:13:21.159Z,86.60
2023-01-20T04:28:10.671Z,86.47
2023-01-20T04:43:00.819Z,86.30
2023-01-20T04:57:50.352Z,86.21
2023-01-20T05:12:39.501Z,86.55
2023-01-20T05:27:29.387Z,86.70
2023-01-20T05:42:19.053Z,86.64
2023-01-20T05:57:08.730Z,86.83
2023-01-20T06:11:57.899Z,86.87
2023-01-20T06:26:47.787Z,86.49
2023-01-20T06:41:38.096Z,86.23
2023-01-20T06:56:28.427Z,85.56
2023-01-20T07:11:17.606Z,85.63
2023-01-20T07:26:07.460Z,85.29
2023-01-20T07:40:59.051Z,84.84
2023-01-20T07:55:53.891Z,84.50
2023-01-20T08:10:45.422Z,84.55
2023-01-20T08:25:35.785Z,84.24
2023-01-20T08:40:26.280Z,84.18
2023-01-20T08:55:17.299Z,84.55
2023-01-20T09:10:07.770Z,85.34
2023-01-20T09:24:58.597Z,85.09
2023-01-20T09:40:07.229Z,83.82
2023-01-20T09:55:09.857Z,82.44
2023-01-20T10:10:22.779Z,82.18
2023-01-20T10:25:21.558Z,81.16
2023-01-20T10:40:17.465Z,79.88
2023-01-20T10:55:28.744Z,79.68
2023-01-20T11:10:26.799Z,78.78
2023-01-20T11:25:26.520Z,78.76
2023-01-20T11:40:22.882Z,77.46
2023-01-20T11:55:22.498Z,75.28
2023-01-20T12:10:21.298Z,75.09
2023-01-20T12:25:15.138Z,73.39
2023-01-20T12:40:14.203Z,73.01
2023-01-20T12:55:27.295Z,71.24
2023-01-20T13:10:38.538Z,68.53
2023-01-20T13:25:33.315Z,66.97
2023-01-20T13:40:33.982Z,66.36
2023-01-20T13:55:31.354Z,66.14
2023-01-20T14:10:23.973Z,65.03
2023-01-20T14:25:21.995Z,64.91
2023-01-20T14:40:14.931Z,64.82
2023-01-20T14:55:05.022Z,65.74
2023-01-20T15:10:04.542Z,66.19
2023-01-20T15:24:59.066Z,66.30
2023-01-20T15:39:48.861Z,66.77
2023-01-20T15:54:38.516Z,66.83
2023-01-20T16:09:27.570Z,67.00
2023-01-20T16:24:17.172Z,67.34
2023-01-20T16:39:07.022Z,67.96
2023-01-20T16:53:56.719Z,67.99
2023-01-20T17:08:47.257Z,67.73
2023-01-20T17:23:37.104Z,67.56
2023-01-20T17:38:26.613Z,67.37
2023-01-20T17:53:16.041Z,67.07
2023-01-20T18:08:11.146Z,66.30
2023-01-20T18:22:56.755Z,65.46
2023-01-20T18:37:47.647Z,65.03
2023-01-20T18:52:39.038Z,64.63
2023-01-20T19:07:31.649Z,66.06
2023-01-20T19:22:21.988Z,67.28
2023-01-20T19:37:12.325Z,67.82
2023-01-20T19:52:03.206Z,69.03
2023-01-20T20:06:53.846Z,70.04
2023-01-20T20:21:43.430Z,71.49
2023-01-20T20:36:32.588Z,74.33
2023-01-20T20:51:22.034Z,77.68
2023-01-20T21:06:11.917Z,78.39
2023-01-20T21:21:01.838Z,76.73
2023-01-20T21:35:52.231Z,76.56
2023-01-20T21:51:00.143Z,78.87
2023-01-20T22:05:56.212Z,79.54
2023-01-20T22:20:46.816Z,81.49
2023-01-20T22:35:36.812Z,82.64
2023-01-20T22:50:27.103Z,82.37
2023-01-20T23:05:17.431Z,80.92
2023-01-20T23:20:07.385Z,81.47
2023-01-20T23:34:58.260Z,78.83
2023-01-20T23:49:48.922Z,77.08
